Marco Island, FL

10:16 PM EDT pas Ockober 22, 2014 (GMT -0400)
Collier Bay, Marco Island | Change Station
CLOSE
Current Station
Personal Weather Stations
Location: Marco Island, FL
Elevation: 20 ft
Nearby Weather Stations

Elev 20 ft 25.97 °N, 81.73 °W | Updated 26 seconds ago

Mendhung
Mendhung
76.1 °F
Feels Like 76 °F
N
0.0
Angin Variable Angin from ESE
Gusts 5.0 mph

Dina Iki
High -- | Low -- °F
--% Chance of Precip.
Yesterday
High -- | Low -- °F
Precip. -- ning
7:29 AM 6:52 PM
Waning Crescent, 1% visible
Tekanan 29.93 ning
Jarak Tingali 10.0 mil
Mega Mendhung Tipis 3600 ft
Indeks Panas 76 °F
Titik Embun 74 °F
Kelembaban 93%
Rainfall 0.00 ning
Snow Depth Not available.
UV 0.0 out of 12
Pollen 1.70 out of 12
Air Quality Not available.
Flu Activity Local Activity
METAR KAPF 230153Z 00000KT 10SM SCT036 26/22 A2993 RMK AO2 SLP135 T02560217

More Conditions Fewer Conditions

Tekanan 29.93 ning
Jarak Tingali 10.0 mil
Mega Mendhung Tipis 3600 ft
Indeks Panas 76 °F
Titik Embun 74 °F
Kelembaban 93%
Rainfall 0.00 ning
Snow Depth Not available.
UV 0.0 out of 12
Pollen 1.70 out of 12
Air Quality Not available.
Flu Activity Local Activity
METAR KAPF 230153Z 00000KT 10SM SCT036 26/22 A2993 RMK AO2 SLP135 T02560217

More Conditions Fewer Conditions

10-Day Weather Forecast

Almanac

Astronomy

Oct. 22, 2014 Rise Set
Actual Time 7:29 AM EDT 6:52 PM EDT
Civil Twilight 7:06 AM EDT 7:16 PM EDT
Nautical Twilight 6:39 AM EDT 7:43 PM EDT
Astronomical Twilight 6:12 AM EDT 8:09 PM EDT
Wulan 6:17 AM EDT (10/22) 6:13 PM EDT (10/22)
Length Of Visible Light 12h 10m
Length of Day
11h 23m
Tomorrow will be 1m 25s shorter.
Waning Crescent, 1% of the Moon is Illuminated
Dina Iki
Waning Crescent
Oct 23
New
Oct 30
First Quarter
Nov 6
Full
Nov 14
Last Quarter

Today's Extremes

State Highs State Lows

Community

WunderPhotos

Upload Photos

1,764,109 photos uploaded!

Nearby

Snow Depth

Station Depth Elevation
No new snow has been reported.

Earthquake Activity

Kutho Distance Mag. Time & Date
No recent earthquake activity has been reported nearby.
Minimum magnitude displayed is 2.5.

Coastal Water Temperatures

Panggonan Suhu
Naples, FL 82.9 °F

Nearby Weather Stations